createdAt,value
2022-11-29T00:01:23.778Z,40.88
2022-11-29T00:03:50.201Z,43.78
2022-11-29T00:06:24.701Z,40.40
2022-11-29T00:08:51.245Z,38.17
2022-11-29T00:11:38.908Z,41.80
2022-11-29T00:14:09.214Z,40.83
2022-11-29T00:16:35.962Z,40.80
2022-11-29T00:19:02.801Z,40.45
2022-11-29T00:21:29.435Z,42.47
2022-11-29T00:23:55.697Z,38.38
2022-11-29T00:26:22.048Z,44.85
2022-11-29T00:28:48.616Z,39.55
2022-11-29T00:31:24.183Z,40.08
2022-11-29T00:33:51.239Z,38.80
2022-11-29T00:36:17.785Z,37.40
2022-11-29T00:38:45.490Z,38.40
2022-11-29T00:41:11.957Z,40.30
2022-11-29T00:43:39.033Z,38.47
2022-11-29T00:46:05.810Z,37.60
2022-11-29T00:48:32.357Z,41.13
2022-11-29T00:50:58.628Z,40.05
2022-11-29T00:53:25.151Z,38.55
2022-11-29T00:55:52.298Z,45.72
2022-11-29T00:58:19.392Z,39.03
2022-11-29T01:00:45.709Z,41.72
2022-11-29T01:03:12.045Z,40.10
2022-11-29T01:05:38.354Z,40.10
2022-11-29T01:08:04.821Z,42.55
2022-11-29T01:10:31.177Z,42.75
2022-11-29T01:12:57.530Z,41.45
2022-11-29T01:15:23.892Z,39.92
2022-11-29T01:17:50.405Z,39.70
2022-11-29T01:20:16.796Z,41.05
2022-11-29T01:22:43.242Z,39.83
2022-11-29T01:25:11.467Z,39.20
2022-11-29T01:27:37.941Z,39.85
2022-11-29T01:30:05.164Z,38.50
2022-11-29T01:32:31.493Z,37.33
2022-11-29T01:34:57.847Z,35.80
2022-11-29T01:37:24.382Z,35.92
2022-11-29T01:39:50.763Z,36.25
2022-11-29T01:42:17.139Z,34.35
2022-11-29T01:44:46.854Z,36.05
2022-11-29T01:47:13.380Z,34.78
2022-11-29T01:49:44.380Z,37.50
2022-11-29T01:52:13.672Z,37.05
2022-11-29T01:54:47.233Z,36.15
2022-11-29T01:57:13.789Z,35.13
2022-11-29T01:59:46.432Z,34.10
2022-11-29T02:02:18.335Z,34.83
2022-11-29T02:04:45.680Z,33.13
2022-11-29T02:07:12.348Z,33.95
2022-11-29T02:09:38.817Z,31.63
2022-11-29T02:12:05.123Z,34.58
2022-11-29T02:14:49.618Z,36.90
2022-11-29T02:17:41.269Z,34.17
2022-11-29T02:20:07.607Z,34.20
2022-11-29T02:22:47.480Z,35.60
2022-11-29T02:25:22.965Z,33.92
2022-11-29T02:27:52.330Z,32.53
2022-11-29T02:30:21.092Z,32.78
2022-11-29T02:33:01.032Z,34.78
2022-11-29T02:35:46.427Z,33.63
2022-11-29T02:38:12.821Z,35.17
2022-11-29T02:40:48.384Z,33.72
2022-11-29T02:43:33.583Z,32.83
2022-11-29T02:46:08.120Z,32.67
2022-11-29T02:48:37.720Z,37.03
2022-11-29T02:51:22.242Z,36.58
2022-11-29T02:53:48.532Z,34.72
2022-11-29T02:56:23.525Z,35.15
2022-11-29T02:58:58.613Z,33.63
2022-11-29T03:01:29.825Z,31.92
2022-11-29T03:04:13.815Z,30.90
2022-11-29T03:06:40.149Z,40.30
2022-11-29T03:09:12.680Z,33.78
2022-11-29T03:11:57.994Z,30.50
2022-11-29T03:14:30.935Z,31.98
2022-11-29T03:17:16.136Z,27.40
2022-11-29T03:19:50.834Z,34.75
2022-11-29T03:22:30.388Z,37.38
2022-11-29T03:25:07.950Z,39.63
2022-11-29T03:27:53.025Z,34.42
2022-11-29T03:30:19.972Z,33.45
2022-11-29T03:32:55.491Z,33.78
2022-11-29T03:35:37.027Z,36.65
2022-11-29T03:38:21.849Z,27.63
2022-11-29T03:40:51.579Z,29.48
2022-11-29T03:43:30.540Z,29.35
2022-11-29T03:46:02.769Z,29.38
2022-11-29T03:48:31.423Z,29.83
2022-11-29T03:51:01.580Z,35.25
2022-11-29T03:53:27.877Z,26.57
2022-11-29T03:55:56.564Z,24.30
2022-11-29T03:58:35.981Z,26.05
2022-11-29T04:01:14.638Z,25.77
2022-11-29T04:03:53.081Z,24.65
2022-11-29T04:06:22.470Z,23.25
2022-11-29T04:09:16.539Z,26.65
2022-11-29T04:11:59.210Z,25.52
2022-11-29T04:14:34.769Z,24.33
2022-11-29T04:17:19.897Z,23.20
2022-11-29T04:19:46.225Z,26.23
2022-11-29T04:22:31.432Z,24.98
2022-11-29T04:25:16.125Z,24.80
2022-11-29T04:28:01.275Z,27.60
2022-11-29T04:30:30.892Z,28.40
2022-11-29T04:32:59.985Z,26.77
2022-11-29T04:35:35.532Z,25.15
2022-11-29T04:38:04.908Z,24.65
2022-11-29T04:40:38.545Z,24.13
2022-11-29T04:43:20.077Z,24.45
2022-11-29T04:45:58.955Z,24.05
2022-11-29T04:48:44.176Z,23.05
2022-11-29T04:51:22.786Z,24.40
2022-11-29T04:53:49.134Z,25.05
2022-11-29T04:56:34.183Z,23.65
2022-11-29T04:59:16.306Z,24.80
2022-11-29T05:01:57.615Z,25.20
2022-11-29T05:04:36.078Z,20.45
2022-11-29T05:07:08.358Z,19.48
2022-11-29T05:09:34.742Z,22.85
2022-11-29T05:12:17.081Z,22.25
2022-11-29T05:14:46.368Z,21.52
2022-11-29T05:17:26.335Z,20.63
2022-11-29T05:20:03.410Z,22.85
2022-11-29T05:22:29.755Z,26.85
2022-11-29T05:24:56.065Z,21.77
2022-11-29T05:27:42.815Z,20.20
2022-11-29T05:30:12.750Z,22.95
2022-11-29T05:32:46.348Z,26.05
2022-11-29T05:35:24.794Z,19.70
2022-11-29T05:37:59.437Z,19.25
2022-11-29T05:40:40.556Z,20.55
2022-11-29T05:43:06.806Z,21.48
2022-11-29T05:45:42.628Z,22.45
2022-11-29T05:48:27.713Z,21.73
2022-11-29T05:51:15.989Z,19.55
2022-11-29T05:53:46.355Z,20.58
2022-11-29T05:56:40.063Z,18.03
2022-11-29T05:59:12.590Z,22.23
2022-11-29T06:01:58.686Z,18.02
2022-11-29T06:04:33.175Z,19.65
2022-11-29T06:07:15.966Z,19.00
2022-11-29T06:09:48.656Z,17.83
2022-11-29T06:12:20.759Z,18.80
2022-11-29T06:14:50.847Z,18.13
2022-11-29T06:17:38.779Z,20.13
2022-11-29T06:20:31.632Z,17.80
2022-11-29T06:23:04.151Z,19.38
2022-11-29T06:25:42.254Z,17.40
2022-11-29T06:28:27.365Z,16.65
2022-11-29T06:31:05.398Z,17.20
2022-11-29T06:33:31.725Z,19.08
2022-11-29T06:36:07.393Z,16.58
2022-11-29T06:38:34.095Z,15.13
2022-11-29T06:41:02.307Z,16.48
2022-11-29T06:43:29.627Z,16.00
2022-11-29T06:46:00.595Z,16.13
2022-11-29T06:48:34.829Z,17.13
2022-11-29T06:51:08.271Z,15.35
2022-11-29T06:53:42.739Z,15.20
2022-11-29T06:56:15.307Z,14.52
2022-11-29T06:58:50.666Z,16.25
2022-11-29T07:01:24.717Z,16.65
2022-11-29T07:04:11.358Z,16.98
2022-11-29T07:06:39.257Z,17.02
2022-11-29T07:09:13.257Z,15.95
2022-11-29T07:11:40.078Z,15.02
2022-11-29T07:14:06.496Z,15.25
2022-11-29T07:16:36.032Z,15.60
2022-11-29T07:19:11.988Z,14.10
2022-11-29T07:21:57.264Z,13.80
2022-11-29T07:24:45.754Z,13.10
2022-11-29T07:27:13.300Z,11.98
2022-11-29T07:29:39.671Z,12.07
2022-11-29T07:32:14.792Z,11.75
2022-11-29T07:35:00.378Z,11.85
2022-11-29T07:37:39.048Z,11.68
2022-11-29T07:40:05.553Z,12.68
2022-11-29T07:42:31.885Z,13.98
2022-11-29T07:45:07.277Z,13.38
2022-11-29T07:47:35.930Z,14.48
2022-11-29T07:50:02.793Z,11.70
2022-11-29T07:52:29.144Z,12.35
2022-11-29T07:54:55.800Z,12.25
2022-11-29T07:57:22.632Z,10.45
2022-11-29T07:59:49.240Z,11.63
2022-11-29T08:02:25.587Z,9.95
2022-11-29T08:04:52.006Z,11.00
2022-11-29T08:07:18.564Z,11.23
2022-11-29T08:09:45.281Z,14.27
2022-11-29T08:12:12.006Z,11.93
2022-11-29T08:14:38.289Z,10.73
2022-11-29T08:17:04.778Z,12.45
2022-11-29T08:19:31.723Z,12.90
2022-11-29T08:21:58.169Z,12.18
2022-11-29T08:24:24.524Z,11.63
2022-11-29T08:26:50.788Z,12.80
2022-11-29T08:29:17.360Z,12.05
2022-11-29T08:31:44.124Z,12.60
2022-11-29T08:34:10.711Z,12.95
2022-11-29T08:36:37.019Z,13.77
2022-11-29T08:39:09.190Z,13.00
2022-11-29T08:41:35.757Z,12.52
2022-11-29T08:44:02.290Z,12.88
2022-11-29T08:46:48.540Z,13.63
2022-11-29T08:49:14.943Z,12.98
2022-11-29T08:51:41.336Z,12.77
2022-11-29T08:54:07.822Z,14.10
2022-11-29T08:59:22.803Z,12.93
2022-11-29T09:01:49.172Z,13.93
2022-11-29T09:04:17.033Z,18.35
2022-11-29T09:06:44.429Z,13.80
2022-11-29T09:09:10.941Z,15.38
2022-11-29T09:11:37.254Z,12.85
2022-11-29T09:14:05.380Z,13.50
2022-11-29T09:16:33.647Z,14.85
2022-11-29T09:19:00.454Z,14.93
2022-11-29T09:21:29.025Z,14.52
2022-11-29T09:23:59.215Z,14.35
2022-11-29T09:26:27.466Z,12.40
2022-11-29T09:28:54.159Z,12.45
2022-11-29T09:31:21.328Z,13.65
2022-11-29T09:33:48.629Z,13.25
2022-11-29T09:36:15.146Z,12.80
2022-11-29T09:38:42.555Z,13.75
2022-11-29T09:41:45.648Z,12.95
2022-11-29T09:44:29.542Z,12.60
2022-11-29T09:49:38.301Z,11.65
2022-11-29T09:52:19.912Z,10.70
2022-11-29T09:55:10.335Z,12.18
2022-11-29T09:57:37.251Z,10.57
2022-11-29T10:00:06.182Z,11.45
2022-11-29T10:02:47.956Z,9.85
2022-11-29T10:05:17.148Z,14.38
2022-11-29T10:07:45.020Z,11.50
2022-11-29T10:10:20.070Z,11.25
2022-11-29T10:12:48.328Z,12.35
2022-11-29T10:15:17.786Z,16.23
2022-11-29T10:17:47.323Z,13.05
2022-11-29T10:20:21.408Z,13.40
2022-11-29T10:23:00.073Z,13.05
2022-11-29T10:25:30.496Z,12.57
2022-11-29T10:27:57.402Z,14.00
2022-11-29T10:30:23.908Z,12.52
2022-11-29T10:32:52.281Z,11.82
2022-11-29T10:35:19.424Z,10.68
2022-11-29T10:38:01.409Z,9.95
2022-11-29T10:40:32.263Z,10.15
2022-11-29T10:42:58.824Z,10.60
2022-11-29T10:45:25.323Z,10.27
2022-11-29T10:47:52.960Z,11.13
2022-11-29T10:50:23.338Z,11.07
2022-11-29T10:52:49.637Z,11.67
2022-11-29T10:55:16.884Z,11.75
2022-11-29T10:58:02.073Z,12.38
2022-11-29T11:00:28.553Z,12.10
2022-11-29T11:02:54.844Z,12.60
2022-11-29T11:05:25.979Z,11.25
2022-11-29T11:10:28.769Z,12.55
2022-11-29T11:13:05.583Z,11.95
2022-11-29T11:15:32.767Z,12.07
2022-11-29T11:18:00.033Z,12.45
2022-11-29T11:20:28.996Z,12.35
2022-11-29T11:23:00.074Z,12.05
2022-11-29T11:27:53.453Z,11.50
2022-11-29T11:30:24.182Z,13.38
2022-11-29T11:33:06.741Z,12.48
2022-11-29T11:35:33.057Z,12.13
2022-11-29T11:37:59.503Z,12.15
2022-11-29T11:40:28.940Z,12.95
2022-11-29T11:43:00.293Z,12.60
2022-11-29T11:45:34.191Z,12.93
2022-11-29T11:48:19.170Z,12.75
2022-11-29T11:50:50.010Z,11.73
2022-11-29T11:53:24.876Z,12.07
2022-11-29T11:55:59.177Z,12.52
2022-11-29T11:58:32.761Z,12.07
2022-11-29T12:01:04.651Z,12.48
2022-11-29T12:03:31.529Z,12.15
2022-11-29T12:06:00.696Z,13.45
2022-11-29T12:08:27.760Z,12.23
2022-11-29T12:10:56.009Z,13.18
2022-11-29T12:13:25.325Z,12.20
2022-11-29T12:15:52.407Z,11.82
2022-11-29T12:18:24.593Z,12.65
2022-11-29T12:20:57.025Z,12.90
2022-11-29T12:23:27.543Z,13.05
2022-11-29T12:25:57.665Z,13.38
2022-11-29T12:28:32.324Z,13.73
2022-11-29T12:31:01.872Z,12.15
2022-11-29T12:33:42.962Z,13.95
2022-11-29T12:36:22.193Z,13.77
2022-11-29T12:38:57.495Z,14.35
2022-11-29T12:41:42.658Z,12.95
2022-11-29T12:44:12.985Z,13.63
2022-11-29T12:46:39.985Z,13.47
2022-11-29T12:49:14.805Z,12.63
2022-11-29T12:51:41.284Z,14.50
2022-11-29T12:54:18.517Z,13.30
2022-11-29T12:56:49.757Z,12.98
2022-11-29T12:59:25.329Z,12.02
2022-11-29T13:02:27.371Z,13.13
2022-11-29T13:05:00.285Z,13.52
2022-11-29T13:07:29.749Z,12.88
2022-11-29T13:10:18.027Z,13.75
2022-11-29T13:13:07.774Z,13.45
2022-11-29T13:16:00.480Z,13.68
2022-11-29T13:18:50.319Z,13.13
2022-11-29T13:21:20.164Z,12.80
2022-11-29T13:24:08.394Z,12.50
2022-11-29T13:26:36.533Z,12.95
2022-11-29T13:29:03.324Z,12.60
2022-11-29T13:31:29.887Z,12.32
2022-11-29T13:33:56.544Z,13.38
2022-11-29T13:36:26.425Z,13.35
2022-11-29T13:39:08.254Z,12.93
2022-11-29T13:41:41.031Z,13.10
2022-11-29T13:44:19.887Z,13.27
2022-11-29T13:46:52.585Z,12.27
2022-11-29T13:49:23.487Z,12.63
2022-11-29T13:52:03.257Z,12.55
2022-11-29T13:54:31.803Z,13.15
2022-11-29T13:57:06.591Z,12.32
2022-11-29T13:59:34.611Z,13.48
2022-11-29T14:02:01.201Z,12.90
2022-11-29T14:04:30.786Z,12.35
2022-11-29T14:07:06.284Z,12.90
2022-11-29T14:09:44.793Z,12.63
2022-11-29T14:12:19.468Z,12.80
2022-11-29T14:14:54.021Z,12.70
2022-11-29T14:17:36.421Z,13.50
2022-11-29T14:20:22.804Z,13.93
2022-11-29T14:23:04.571Z,14.88
2022-11-29T14:28:18.043Z,14.45
2022-11-29T14:30:48.411Z,14.98
2022-11-29T14:33:25.247Z,14.38
2022-11-29T14:36:03.482Z,15.25
2022-11-29T14:38:50.139Z,13.63
2022-11-29T14:41:22.390Z,14.43
2022-11-29T14:43:48.804Z,13.60
2022-11-29T14:46:15.344Z,14.30
2022-11-29T14:48:45.369Z,15.18
2022-11-29T14:51:13.322Z,14.57
2022-11-29T14:53:40.877Z,15.20
2022-11-29T14:56:25.803Z,16.20
2022-11-29T14:59:10.986Z,16.45
2022-11-29T15:01:42.238Z,18.00
2022-11-29T15:04:09.243Z,18.33
2022-11-29T15:06:43.317Z,19.33
2022-11-29T15:09:19.616Z,19.15
2022-11-29T15:11:56.143Z,18.38
2022-11-29T15:14:29.173Z,21.08
2022-11-29T15:17:02.796Z,22.10
2022-11-29T15:19:52.577Z,21.17
2022-11-29T15:22:27.494Z,20.00
2022-11-29T15:24:53.827Z,20.13
2022-11-29T15:27:20.506Z,19.77
2022-11-29T15:29:48.377Z,20.38
2022-11-29T15:32:35.080Z,25.40
2022-11-29T15:35:01.958Z,19.77
2022-11-29T15:37:34.609Z,19.38
2022-11-29T15:40:05.970Z,21.02
2022-11-29T15:42:39.872Z,18.80
2022-11-29T15:45:24.694Z,21.73
2022-11-29T15:47:51.301Z,19.35
2022-11-29T15:50:25.705Z,20.67
2022-11-29T15:52:53.370Z,21.92
2022-11-29T15:55:20.164Z,22.00
2022-11-29T15:57:48.315Z,20.65
2022-11-29T16:00:24.110Z,19.88
2022-11-29T16:02:52.079Z,22.08
2022-11-29T16:05:18.377Z,20.55
2022-11-29T16:07:45.750Z,23.80
2022-11-29T16:10:17.827Z,21.25
2022-11-29T16:12:54.006Z,20.55
2022-11-29T16:15:26.500Z,18.55
2022-11-29T16:17:52.864Z,20.70
2022-11-29T16:20:24.143Z,20.45
2022-11-29T16:23:11.357Z,19.00
2022-11-29T16:25:56.734Z,18.88
2022-11-29T16:28:24.099Z,16.63
2022-11-29T16:30:50.459Z,16.92
2022-11-29T16:33:21.306Z,16.88
2022-11-29T16:35:47.779Z,16.80
2022-11-29T16:38:17.948Z,16.13
2022-11-29T16:41:01.080Z,16.77
2022-11-29T16:43:48.529Z,16.05
2022-11-29T16:46:14.966Z,15.15
2022-11-29T16:48:42.450Z,15.43
2022-11-29T16:51:14.872Z,16.33
2022-11-29T16:53:42.410Z,15.15
2022-11-29T16:56:10.735Z,15.73
2022-11-29T16:59:16.635Z,16.27
2022-11-29T17:01:25.192Z,15.95
2022-11-29T17:03:51.752Z,16.63
2022-11-29T17:06:21.172Z,16.23
2022-11-29T17:08:47.813Z,16.17
2022-11-29T17:11:14.124Z,15.13
2022-11-29T17:13:40.896Z,14.50
2022-11-29T17:16:12.580Z,14.77
2022-11-29T17:18:40.888Z,14.00
2022-11-29T17:21:07.629Z,15.27
2022-11-29T17:23:34.698Z,14.73
2022-11-29T17:26:02.133Z,13.43
2022-11-29T17:28:28.546Z,14.52
2022-11-29T17:30:54.956Z,14.80
2022-11-29T17:33:21.315Z,13.68
2022-11-29T17:35:47.641Z,13.60
2022-11-29T17:38:13.963Z,13.98
2022-11-29T17:40:40.440Z,13.48
2022-11-29T17:43:06.997Z,13.52
2022-11-29T17:45:33.402Z,13.32
2022-11-29T17:48:01.070Z,12.18
2022-11-29T17:50:27.432Z,11.30
2022-11-29T17:52:53.784Z,11.35
2022-11-29T17:55:20.882Z,11.73
2022-11-29T17:57:47.746Z,11.60
2022-11-29T18:00:15.473Z,11.93
2022-11-29T18:02:42.018Z,11.40
2022-11-29T18:05:08.619Z,12.15
2022-11-29T18:07:55.135Z,10.63
2022-11-29T18:10:22.119Z,11.02
2022-11-29T18:12:48.481Z,11.48
2022-11-29T18:15:14.793Z,10.55
2022-11-29T18:17:41.107Z,10.82
2022-11-29T18:20:07.893Z,11.05
2022-11-29T18:22:37.355Z,11.20
2022-11-29T18:25:30.740Z,10.40
2022-11-29T18:27:50.102Z,11.55
2022-11-29T18:30:16.849Z,11.40
2022-11-29T18:32:50.633Z,11.00
2022-11-29T18:35:17.140Z,11.35
2022-11-29T18:38:13.559Z,10.57
2022-11-29T18:40:30.088Z,10.25
2022-11-29T18:42:56.473Z,10.88
2022-11-29T18:45:22.808Z,10.35
2022-11-29T18:47:49.084Z,11.35
2022-11-29T18:50:15.409Z,10.27
2022-11-29T18:52:41.723Z,11.07
2022-11-29T18:55:08.153Z,10.90
2022-11-29T18:57:40.822Z,10.25
2022-11-29T19:00:07.845Z,10.23
2022-11-29T19:02:34.621Z,9.48
2022-11-29T19:05:04.021Z,10.02
2022-11-29T19:07:34.213Z,10.02
2022-11-29T19:10:00.994Z,10.37
2022-11-29T19:12:27.336Z,9.63
2022-11-29T19:14:53.748Z,10.27
2022-11-29T19:17:22.719Z,8.93
2022-11-29T19:19:49.073Z,10.05
2022-11-29T19:22:15.344Z,9.98
2022-11-29T19:24:41.673Z,10.15
2022-11-29T19:27:08.001Z,10.05
2022-11-29T19:29:39.459Z,10.13
2022-11-29T19:32:08.402Z,9.98
2022-11-29T19:34:34.730Z,9.73
2022-11-29T19:37:03.745Z,11.48
2022-11-29T19:39:35.684Z,10.30
2022-11-29T19:42:02.202Z,11.30
2022-11-29T19:44:30.102Z,10.90
2022-11-29T19:46:57.796Z,12.98
2022-11-29T19:49:24.137Z,13.93
2022-11-29T19:51:50.394Z,12.55
2022-11-29T19:54:16.841Z,11.80
2022-11-29T19:56:43.593Z,10.02
2022-11-29T19:59:10.394Z,9.63
2022-11-29T20:01:41.725Z,9.98
2022-11-29T20:04:09.531Z,9.18
2022-11-29T20:06:36.114Z,8.65
2022-11-29T20:09:02.712Z,8.85
2022-11-29T20:11:29.295Z,9.88
2022-11-29T20:13:57.136Z,9.25
2022-11-29T20:16:24.000Z,9.65
2022-11-29T20:18:51.669Z,9.05
2022-11-29T20:21:29.251Z,9.02
2022-11-29T20:23:56.697Z,9.80
2022-11-29T20:26:23.614Z,9.50
2022-11-29T20:28:50.055Z,8.82
2022-11-29T20:31:17.806Z,9.70
2022-11-29T20:33:45.393Z,8.82
2022-11-29T20:36:11.668Z,9.02
2022-11-29T20:38:58.405Z,9.25
2022-11-29T20:41:27.145Z,9.40
2022-11-29T20:43:58.698Z,9.18
2022-11-29T20:46:25.735Z,9.63
2022-11-29T20:48:52.967Z,9.25
2022-11-29T20:51:22.279Z,9.23
2022-11-29T20:53:48.653Z,9.77
2022-11-29T20:56:14.977Z,9.70
2022-11-29T20:58:41.666Z,9.80
2022-11-29T21:01:08.115Z,9.13
2022-11-29T21:03:34.633Z,9.98
2022-11-29T21:06:02.120Z,9.77
2022-11-29T21:08:29.237Z,9.00
2022-11-29T21:11:01.173Z,8.93
2022-11-29T21:13:27.718Z,9.07
2022-11-29T21:15:54.327Z,8.63
2022-11-29T21:18:25.794Z,8.77
2022-11-29T21:23:22.646Z,8.52
2022-11-29T21:25:54.835Z,8.93
2022-11-29T21:28:24.346Z,9.00
2022-11-29T21:30:50.926Z,9.82
2022-11-29T21:33:17.518Z,8.95
2022-11-29T21:35:43.954Z,8.45
2022-11-29T21:38:13.210Z,8.95
2022-11-29T21:40:39.623Z,9.48
2022-11-29T21:43:06.066Z,9.30
2022-11-29T21:45:33.898Z,9.57
2022-11-29T21:48:25.855Z,9.70
2022-11-29T21:50:52.149Z,8.75
2022-11-29T21:53:18.455Z,9.27
2022-11-29T21:55:44.737Z,8.68
2022-11-29T21:58:11.017Z,9.32
2022-11-29T22:00:39.038Z,9.88
2022-11-29T22:03:07.267Z,10.15
2022-11-29T22:05:33.614Z,10.75
2022-11-29T22:08:00.100Z,9.88
2022-11-29T22:10:27.949Z,10.20
2022-11-29T22:12:54.243Z,9.45
2022-11-29T22:15:24.744Z,9.35
2022-11-29T22:17:52.227Z,9.02
2022-11-29T22:20:19.063Z,9.05
2022-11-29T22:22:47.532Z,9.38
2022-11-29T22:25:14.352Z,9.20
2022-11-29T22:27:43.465Z,9.63
2022-11-29T22:30:10.074Z,9.65
2022-11-29T22:32:36.627Z,9.65
2022-11-29T22:35:02.988Z,9.15
2022-11-29T22:37:29.305Z,9.85
2022-11-29T22:39:55.668Z,9.20
2022-11-29T22:42:22.002Z,10.15
2022-11-29T22:44:48.571Z,9.07
2022-11-29T22:47:15.089Z,10.50
2022-11-29T22:49:41.615Z,10.52
2022-11-29T22:52:07.906Z,9.95
2022-11-29T22:54:34.218Z,10.15
2022-11-29T22:57:03.497Z,10.52
2022-11-29T22:59:29.957Z,10.45
2022-11-29T23:01:57.479Z,12.88
2022-11-29T23:04:23.809Z,12.88
2022-11-29T23:06:50.126Z,14.77
2022-11-29T23:09:19.738Z,12.98
2022-11-29T23:11:46.230Z,14.10
2022-11-29T23:14:12.839Z,14.52
2022-11-29T23:16:39.268Z,13.90
2022-11-29T23:19:05.753Z,13.82
2022-11-29T23:21:33.284Z,15.35
2022-11-29T23:24:02.628Z,15.13
2022-11-29T23:26:36.359Z,15.07
2022-11-29T23:29:03.657Z,15.85
2022-11-29T23:31:30.080Z,15.13
2022-11-29T23:33:59.021Z,15.48
2022-11-29T23:36:26.616Z,15.30
2022-11-29T23:38:53.084Z,15.43
2022-11-29T23:41:19.775Z,17.13
2022-11-29T23:43:47.055Z,19.63
2022-11-29T23:46:18.104Z,17.95
2022-11-29T23:51:13.105Z,18.80
2022-11-29T23:53:39.781Z,19.48
2022-11-29T23:56:07.522Z,19.90
2022-11-29T23:58:34.621Z,19.75
